Flight Track Log - Related Links

Times and Time Zones

All times are in EDT time to prevent confusion due to time zone crossing. See the RPA3392 flight status page for this flight to view local times or setup timezone preferences in your user account.

Time Position Orientation Groundspeed Altitude Reporting Facility
EDT Latitude Longitude Course Direction KTS MPH feet Rate Location/Type
Sun 10:59:27 PM 38.8167 -77.0333 39° Northeast 147 169 1,700  Level Potomac TRACON
Sun 11:01:00 PM 39.4663 -75.5095 44° Northeast  Level FlightAware Approximate
Sun 11:01:52 PM 38.7536 -76.9358 130° Southeast 184 212 6,000  Level Washington Center
Sun 11:02:00 PM 39.7861 -75.0760 48° Northeast  Level FlightAware Approximate
Sun 11:02:52 PM 38.8233 -76.8653 38° Northeast 189 217 8,700  Level Washington Center
Sun 11:03:00 PM 40.0940 -74.6320 47° Northeast  Level FlightAware Approximate
Sun 11:03:50 PM 38.8928 -76.7944 38° Northeast 241 277 10,800  Level Washington Center
Sun 11:04:00 PM 40.4399 -74.2315 39° Northeast  Level FlightAware Approximate
Sun 11:04:50 PM 38.9458 -76.6911 57° Northeast 302 348 13,300  Level Washington Center
Sun 11:05:50 PM 38.9947 -76.5797 61° Northeast 324 373 16,000 2,479 Climbing Washington Center
Sun 11:06:51 PM 39.0414 -76.4708 61° Northeast 334 384 18,300 2,168 Climbing Washington Center
Sun 11:07:49 PM 39.0672 -76.3456 75° East 347 399 20,300 1,361 Climbing Washington Center
Sun 11:08:50 PM 39.0953 -76.2119 75° East 366 421 21,000 893 Climbing Washington Center
Sun 11:09:50 PM 39.1375 -76.0814 67° East 385 443 22,100 1,550 Climbing Washington Center
Sun 11:10:50 PM 39.1756 -75.9478 70° East 390 449 24,100 1,388 Climbing Washington Center
Sun 11:11:51 PM 39.2383 -75.8247 57° Northeast 390 449 24,900 1,100 Climbing Washington Center
Sun 11:12:50 PM 39.3239 -75.7150 45° Northeast 410 472 26,300 1,041 Climbing Washington Center
Sun 11:13:52 PM 39.4114 -75.5997 45° Northeast 426 490 27,000 350 Climbing Washington Center
Sun 11:14:50 PM 39.5008 -75.4814 46° Northeast 447 514 27,000  Level Washington Center
Sun 11:15:51 PM 39.5925 -75.3625 45° Northeast 454 522 27,000  Level Washington Center
Sun 11:18:05 PM 39.7864 -75.0906 47° Northeast 469 540 27,000  Level New York Center
Sun 11:19:06 PM 39.8764 -74.9636 47° Northeast 469 540 27,000  Level New York Center
Sun 11:20:06 PM 39.9828 -74.8425 41° Northeast 462 532 27,000  Level New York Center
Sun 11:21:03 PM 40.0906 -74.8000 17° North 453 521 27,000 -508 Level New York Center
Sun 11:22:04 PM 40.2236 -74.7533 15° North 458 527 26,000 -492 Descending New York Center
Sun 11:23:05 PM 40.3503 -74.7036 17° North 463 533 26,000  Level New York Center
Sun 11:25:10 PM 40.5975 -74.6131 16° North 468 539 26,000  Level Boston Center
Sun 11:26:10 PM 40.7192 -74.5678 16° North 457 526 26,000  Level Boston Center
Sun 11:27:10 PM 40.8389 -74.5278 14° North 457 526 26,000  Level Boston Center
Sun 11:28:10 PM 40.9544 -74.4794 18° North 442 509 26,000  Level Boston Center
Sun 11:29:10 PM 41.0675 -74.4417 14° North 429 494 26,000  Level Boston Center
Sun 11:30:10 PM 41.1872 -74.3983 15° North 424 488 26,000  Level Boston Center
Sun 11:31:10 PM 41.3006 -74.3522 17° North 429 494 26,000  Level Boston Center
Sun 11:32:10 PM 41.4178 -74.3086 16° North 429 494 26,000 -150 Level Boston Center
Sun 11:33:10 PM 41.5478 -74.2653 14° North 424 488 25,700 -1,100 Descending Boston Center
Sun 11:34:10 PM 41.6631 -74.2214 16° North 424 488 23,800 -2,050 Descending Boston Center
Sun 11:35:10 PM 41.7742 -74.1800 16° North 419 482 21,600 -2,000 Descending Boston Center
Sun 11:36:22 PM 41.8750 -74.1436 15° North 395 455 19,400 -2,318 Descending Boston Center
Sun 11:37:22 PM 41.9861 -74.0992 17° North 378 435 16,500 -2,700 Descending Boston Center
Sun 11:38:22 PM 42.0825 -74.0625 16° North 366 421 14,000 -2,450 Descending Boston Center
Sun 11:39:22 PM 42.1872 -74.0203 17° North 356 410 11,600 -1,682 Descending Boston Center
Sun 11:40:34 PM 42.2669 -73.9889 16° North 339 390 10,300 -2,045 Descending Boston Center
Sun 11:41:34 PM 42.3675 -73.9519 15° North 311 358 7,100 -2,550 Descending Boston Center
Sun 11:42:34 PM 42.4533 -73.9175 16° North 294 338 5,200 -1,550 Descending Boston Center
Sun 11:43:34 PM 42.5200 -73.9161 North 276 318 4,000 -600 Descending Boston Center
Sun 11:44:34 PM 42.5972 -73.9181 359° North 258 297 4,000  Level Boston Center
Sun 11:45:34 PM 42.6700 -73.9197 359° North 253 291 4,000 -250 Level Boston Center
Sun 11:46:34 PM 42.7408 -73.9214 359° North 253 291 3,500 -500 Descending Boston Center
Sun 11:47:34 PM 42.7992 -73.9200 North 234 269 3,000 -500 Descending Boston Center
Sun 11:48:34 PM 42.8308 -73.8953 30° Northeast 174 200 2,500 -500 Descending Boston Center

Login

Don't have an account? Register now (free) for customized features, flight alerts, and more!